Time;durP1;ratioP1;P1;durP2;ratioP2;P2;SDS_P1;SDS_P2;PMS_P1;PMS_P2;Temp;Humidity;BMP_temperature;BMP_pressure;BME280_temperature;BME280_humidity;BME280_pressure;Samples;Min_cycle;Max_cycle;Signal;HPM_P1;HPM_P2
2023/08/09 00:01:58;;;;;;;;;;;;;;;-145.06;100.00;60892.56;4742344;29;19916;-91
2023/08/09 00:04:37;;;;;;;;;;;;;;;-145.06;100.00;60892.56;4745556;29;19998;-92
2023/08/09 00:07:16;;;;;;;;;;;;;;;-145.06;100.00;60892.56;4745456;29;19919;-93
2023/08/09 00:09:55;;;;;;;;;;;;;;;-145.06;100.00;60892.56;4741289;29;20374;-92
2023/08/09 00:12:34;;;;;;;;;;;;;;;-145.06;100.00;60892.56;4739629;29;19919;-92
2023/08/09 00:15:13;;;;;;;;;;;;;;;-145.06;100.00;60892.56;4748876;29;19922;-93
2023/08/09 00:17:54;;;;;;;;;;;;;;;-145.06;100.00;60892.56;4740846;29;19915;-93
2023/08/09 00:20:34;;;;;;;;;;;;;;;-145.06;100.00;60892.56;4738792;29;20361;-94
2023/08/09 00:23:14;;;;;;;;;;;;;;;-145.06;100.00;60892.56;4752743;29;20006;-92
2023/08/09 00:25:55;;;;;;;;;;;;;;;-145.06;100.00;60892.56;4739308;29;19919;-93
2023/08/09 00:28:34;;;;;;;;;;;;;;;-145.06;100.00;60892.56;4733894;29;19920;-93
2023/08/09 00:31:13;;;;;;;;;;;;;;;-145.06;100.00;60892.56;4739753;29;19919;-93
2023/08/09 00:33:56;;;;;;;;;;;;;;;-145.06;100.00;60892.56;4730264;29;19923;-93
2023/08/09 00:36:34;;;;;;;;;;;;;;;-145.06;100.00;60892.56;4737391;29;19915;-93
2023/08/09 00:39:13;;;;;;;;;;;;;;;-145.06;100.00;60892.56;4737214;29;19923;-93
2023/08/09 00:41:55;;;;;;;;;;;;;;;-145.06;100.00;60892.56;4733512;29;19919;-93
2023/08/09 00:44:34;;;;;;;;;;;;;;;-145.06;100.00;60892.56;4721328;29;19915;-92
2023/08/09 00:47:14;;;;;;;;;;;;;;;-145.06;100.00;60892.56;4741571;29;19914;-93
2023/08/09 00:49:53;;;;;;;;;;;;;;;-145.06;100.00;60892.56;4727008;29;19924;-92
2023/08/09 00:52:32;;;;;;;;;;;;;;;-145.06;100.00;60892.56;4751507;29;19969;-92
2023/08/09 00:55:11;;;;;;;;;;;;;;;-145.06;100.00;60892.56;4743726;29;19958;-92
2023/08/09 00:57:51;;;;;;;;;;;;;;;-145.06;100.00;60892.56;4746448;29;19919;-92
2023/08/09 01:00:31;;;;;;;;;;;;;;;-145.06;100.00;60892.56;4735073;29;19923;-94
2023/08/09 01:03:10;;;;;;;;;;;;;;;-145.06;100.00;60892.56;4725917;29;19919;-93
2023/08/09 01:06:04;;;;;;;;;;;;;;;-145.06;100.00;60892.56;4760651;29;20017;-92
2023/08/09 01:08:49;;;;;;;;;;;;;;;-145.06;100.00;60892.56;4750018;29;19916;-92
2023/08/09 01:11:35;;;;;;;;;;;;;;;-145.06;100.00;60892.56;4743303;29;19923;-93
2023/08/09 01:14:15;;;;;;;;;;;;;;;-145.06;100.00;60892.56;4743751;29;19915;-92
2023/08/09 01:16:55;;;;;;;;;;;;;;;-145.06;100.00;60892.56;4751854;29;20259;-91
2023/08/09 01:19:34;;;;;;;;;;;;;;;-145.06;100.00;60892.56;4755411;29;19923;-92
2023/08/09 01:22:22;;;;;;;;;;;;;;;-145.06;100.00;60892.56;4739545;29;20377;-92
2023/08/09 01:25:06;;;;;;;;;;;;;;;-145.06;100.00;60892.56;4722117;29;19954;-93
2023/08/09 01:27:45;;;;;;;;;;;;;;;-145.06;100.00;60892.56;4724842;29;20327;-91
2023/08/09 01:30:25;;;;;;;;;;;;;;;-145.06;100.00;60892.56;4738475;29;20122;-92
2023/08/09 01:33:06;;;;;;;;;;;;;;;-145.06;100.00;60892.56;4744489;29;20239;-93
2023/08/09 01:35:55;;;;;;;;;;;;;;;-145.06;100.00;60892.56;4737775;29;19923;-93
2023/08/09 01:38:35;;;;;;;;;;;;;;;-145.06;100.00;60892.56;4743738;29;19918;-92
2023/08/09 01:41:15;;;;;;;;;;;;;;;-145.06;100.00;60892.56;4752231;29;19970;-92
2023/08/09 01:43:55;;;;;;;;;;;;;;;-145.06;100.00;60892.56;4741321;29;20254;-93
2023/08/09 01:46:36;;;;;;;;;;;;;;;-145.06;100.00;60892.56;4726493;29;20005;-92
2023/08/09 01:49:21;;;;;;;;;;;;;;;-145.06;100.00;60892.56;4755869;29;20417;-92
2023/08/09 01:52:11;;;;;;;;;;;;;;;-145.06;100.00;60892.56;4732743;29;20345;-93
2023/08/09 01:54:50;;;;;;;;;;;;;;;-145.06;100.00;60892.56;4726184;29;19950;-94
2023/08/09 01:57:31;;;;;;;;;;;;;;;-145.06;100.00;60892.56;4742887;29;19919;-93
2023/08/09 02:00:13;;;;;;;;;;;;;;;-145.06;100.00;60892.56;4743448;29;19919;-93
2023/08/09 02:02:54;;;;;;;;;;;;;;;-145.06;100.00;60892.56;4720048;29;19947;-92
2023/08/09 02:05:38;;;;;;;;;;;;;;;-145.06;100.00;60892.56;4721701;29;19915;-93
2023/08/09 02:08:17;;;;;;;;;;;;;;;-145.06;100.00;60892.56;4728967;29;19916;-93
2023/08/09 02:10:55;;;;;;;;;;;;;;;-145.06;100.00;60892.56;4737475;29;19919;-93
2023/08/09 02:13:34;;;;;;;;;;;;;;;-145.06;100.00;60892.56;4719396;29;19916;-95
2023/08/09 02:16:14;;;;;;;;;;;;;;;-145.06;100.00;60892.56;4741094;29;19920;-93
2023/08/09 02:18:52;;;;;;;;;;;;;;;-145.06;100.00;60892.56;4719197;29;19924;-92
2023/08/09 02:21:32;;;;;;;;;;;;;;;-145.06;100.00;60892.56;4719679;29;19916;-92
2023/08/09 02:24:10;;;;;;;;;;;;;;;-145.06;100.00;60892.56;4735046;29;19915;-91
2023/08/09 02:26:49;;;;;;;;;;;;;;;-145.06;100.00;60892.56;4755775;29;19915;-91
2023/08/09 02:29:29;;;;;;;;;;;;;;;-145.06;100.00;60892.56;4737817;29;20017;-92
2023/08/09 02:32:10;;;;;;;;;;;;;;;-145.06;100.00;60892.56;4751611;29;20373;-93
2023/08/09 02:34:52;;;;;;;;;;;;;;;-145.06;100.00;60892.56;4746943;29;19915;-94
2023/08/09 02:37:31;;;;;;;;;;;;;;;-145.06;100.00;60892.56;4723350;29;20255;-92
2023/08/09 02:40:10;;;;;;;;;;;;;;;-145.06;100.00;60892.56;4739975;29;19923;-92
2023/08/09 02:42:49;;;;;;;;;;;;;;;-145.06;100.00;60892.56;4726645;29;20370;-92
2023/08/09 02:45:29;;;;;;;;;;;;;;;-145.06;100.00;60892.56;4738251;29;19915;-93
2023/08/09 02:48:08;;;;;;;;;;;;;;;-145.06;100.00;60892.56;4724426;29;20357;-93
2023/08/09 02:50:47;;;;;;;;;;;;;;;-145.06;100.00;60892.56;4736572;29;19919;-93
2023/08/09 02:53:27;;;;;;;;;;;;;;;-145.06;100.00;60892.56;4726818;29;19916;-92
2023/08/09 02:56:05;;;;;;;;;;;;;;;-145.06;100.00;60892.56;4737124;29;20263;-95
2023/08/09 02:59:13;;;;;;;;;;;;;;;-145.06;100.00;60892.56;4741716;29;20479;-93
2023/08/09 03:02:00;;;;;;;;;;;;;;;-145.06;100.00;60892.56;4736861;29;19916;-94
2023/08/09 03:04:42;;;;;;;;;;;;;;;-145.06;100.00;60892.56;4735714;29;19915;-94
2023/08/09 03:07:23;;;;;;;;;;;;;;;-145.06;100.00;60892.56;4761332;29;19946;-93
2023/08/09 03:10:10;;;;;;;;;;;;;;;-145.06;100.00;60892.56;4760345;29;19914;-93
2023/08/09 03:12:59;;;;;;;;;;;;;;;;;;;;;
2023/08/09 03:15:39;;;;;;;;;;;;;;;-145.06;100.00;60892.56;4762447;29;20315;-94
2023/08/09 03:18:21;;;;;;;;;;;;;;;-145.06;100.00;60892.56;4743068;29;20318;-93
2023/08/09 03:21:03;;;;;;;;;;;;;;;-145.06;100.00;60892.56;4732647;29;19920;-94
2023/08/09 03:23:43;;;;;;;;;;;;;;;-145.06;100.00;60892.56;4724930;29;19915;-93
2023/08/09 03:26:24;;;;;;;;;;;;;;;-145.06;100.00;60892.56;4739382;29;19919;-95
2023/08/09 03:29:11;;;;;;;;;;;;;;;-145.06;100.00;60892.56;4739809;29;19915;-93
2023/08/09 03:31:50;;;;;;;;;;;;;;;-145.06;100.00;60892.56;4735941;29;19919;-92
2023/08/09 03:34:34;;;;;;;;;;;;;;;-145.06;100.00;60892.56;4773437;29;19918;-92
2023/08/09 03:37:13;;;;;;;;;;;;;;;-145.06;100.00;60892.56;4747974;29;19916;-93
2023/08/09 03:39:52;;;;;;;;;;;;;;;-145.06;100.00;60892.56;4742500;29;20275;-92
2023/08/09 03:42:33;;;;;;;;;;;;;;;-145.06;100.00;60892.56;4735392;29;19919;-92
2023/08/09 03:45:12;;;;;;;;;;;;;;;16.85;100.00;60892.56;4737939;29;19915;-92
2023/08/09 03:47:55;;;;;;;;;;;;;;;-145.06;100.00;60892.56;4753389;29;20264;-93
2023/08/09 03:50:34;;;;;;;;;;;;;;;16.85;100.00;60892.56;4733000;29;19919;-92
2023/08/09 03:53:13;;;;;;;;;;;;;;;-145.06;100.00;60892.56;4737595;29;19919;-94
2023/08/09 03:55:52;;;;;;;;;;;;;;;-145.06;100.00;60892.56;4735043;29;20291;-92
2023/08/09 03:58:34;;;;;;;;;;;;;;;-145.06;100.00;60892.56;4740190;29;19915;-93
2023/08/09 04:01:16;;;;;;;;;;;;;;;-145.06;100.00;60892.56;4730892;29;19966;-91
2023/08/09 04:03:56;;;;;;;;;;;;;;;-145.06;100.00;60892.56;4729747;29;19915;-90
2023/08/09 04:06:35;;;;;;;;;;;;;;;-145.06;100.00;60892.56;4756956;29;19989;-93
2023/08/09 04:09:14;;;;;;;;;;;;;;;-145.06;100.00;60892.56;4757434;29;19915;-94
2023/08/09 04:11:53;;;;;;;;;;;;;;;-145.06;100.00;60892.56;4749877;29;19919;-94
2023/08/09 04:14:34;;;;;;;;;;;;;;;-145.06;100.00;60892.56;4755286;29;19916;-94
2023/08/09 04:17:14;;;;;;;;;;;;;;;-145.06;100.00;60892.56;4753513;29;20022;-93
2023/08/09 04:19:53;;;;;;;;;;;;;;;-145.06;100.00;60892.56;4751100;29;19927;-93
2023/08/09 04:22:35;;;;;;;;;;;;;;;-145.06;100.00;60892.56;4763199;29;20421;-93
2023/08/09 04:25:17;;;;;;;;;;;;;;;-145.06;100.00;60892.56;4753975;29;19915;-93
2023/08/09 04:28:18;;;;;;;;;;;;;;;;;;;;;
2023/08/09 04:30:57;;;;;;;;;;;;;;;-145.06;100.00;60892.56;4743674;29;19923;-91
2023/08/09 04:33:51;;;;;;;;;;;;;;;;;;;;;
2023/08/09 04:36:31;;;;;;;;;;;;;;;-145.06;100.00;60892.56;4746393;29;19915;-92
2023/08/09 04:39:10;;;;;;;;;;;;;;;-145.06;100.00;60892.56;4740007;29;20580;-91
2023/08/09 04:41:49;;;;;;;;;;;;;;;-145.06;100.00;60892.56;4741879;29;20532;-93
2023/08/09 04:44:31;;;;;;;;;;;;;;;-145.06;100.00;60892.56;4734893;29;19919;-90
2023/08/09 04:47:10;;;;;;;;;;;;;;;-145.06;100.00;60892.56;4750000;29;19974;-91
2023/08/09 04:49:59;;;;;;;;;;;;;;;-145.06;100.00;60892.56;4765957;29;19916;-94
2023/08/09 04:52:45;;;;;;;;;;;;;;;-145.06;100.00;60892.56;4759186;29;19966;-92
2023/08/09 04:55:24;;;;;;;;;;;;;;;-145.06;100.00;60892.56;4745473;29;19919;-92
2023/08/09 04:58:03;;;;;;;;;;;;;;;-145.06;100.00;60892.56;4734631;29;19915;-92
2023/08/09 05:00:50;;;;;;;;;;;;;;;-145.06;100.00;60892.56;4750486;29;20262;-92
2023/08/09 05:03:31;;;;;;;;;;;;;;;-145.06;100.00;60892.56;4750139;29;19915;-93
2023/08/09 05:06:15;;;;;;;;;;;;;;;-145.06;100.00;60892.56;4751926;29;19915;-93
2023/08/09 05:08:55;;;;;;;;;;;;;;;-145.06;100.00;60892.56;4750319;29;19954;-93
2023/08/09 05:11:33;;;;;;;;;;;;;;;-145.06;100.00;60892.56;4745833;29;19915;-94
2023/08/09 05:14:12;;;;;;;;;;;;;;;-145.06;100.00;60892.56;4759066;29;20576;-93
2023/08/09 05:17:01;;;;;;;;;;;;;;;-145.06;100.00;60892.56;4752994;29;20414;-93
2023/08/09 05:19:42;;;;;;;;;;;;;;;-145.06;100.00;60892.56;4742195;29;19919;-94
2023/08/09 05:25:46;;;;;;;;;;;;;;;-145.06;100.00;60892.56;4780112;29;19915;-94
2023/08/09 05:28:27;;;;;;;;;;;;;;;-145.06;100.00;60892.56;4753673;29;20377;-94
2023/08/09 05:31:12;;;;;;;;;;;;;;;-145.06;100.00;60892.56;4758603;29;19919;-94
2023/08/09 05:34:02;;;;;;;;;;;;;;;;;;;;;
2023/08/09 05:36:45;;;;;;;;;;;;;;;-145.06;100.00;60892.56;4777928;29;19915;-94
2023/08/09 05:39:25;;;;;;;;;;;;;;;-145.06;100.00;60892.56;4757403;29;19919;-93
2023/08/09 05:42:04;;;;;;;;;;;;;;;-145.06;100.00;60892.56;4755544;29;19915;-94
2023/08/09 05:44:45;;;;;;;;;;;;;;;-145.06;100.00;60892.56;4751977;29;19915;-94
2023/08/09 05:47:27;;;;;;;;;;;;;;;-145.06;100.00;60892.56;4756266;29;19954;-94
2023/08/09 05:50:08;;;;;;;;;;;;;;;-145.06;100.00;60892.56;4758949;29;19923;-94
2023/08/09 05:52:47;;;;;;;;;;;;;;;-145.06;100.00;60892.56;4760417;29;20005;-94
2023/08/09 05:55:27;;;;;;;;;;;;;;;-145.06;100.00;60892.56;4752607;29;19915;-94
2023/08/09 05:58:06;;;;;;;;;;;;;;;-145.06;100.00;60892.56;4740530;29;19923;-93
2023/08/09 06:00:45;;;;;;;;;;;;;;;-145.06;100.00;60892.56;4756660;29;19922;-94
2023/08/09 06:03:27;;;;;;;;;;;;;;;-145.06;100.00;60892.56;4752872;29;19915;-94
2023/08/09 06:06:06;;;;;;;;;;;;;;;-145.06;100.00;60892.56;4738252;29;20263;-93
2023/08/09 06:08:46;;;;;;;;;;;;;;;-145.06;100.00;60892.56;4738528;29;19919;-93
2023/08/09 06:11:25;;;;;;;;;;;;;;;-145.06;100.00;60892.56;4737924;29;19915;-93
2023/08/09 06:14:05;;;;;;;;;;;;;;;-145.06;100.00;60892.56;4753957;29;20366;-94
2023/08/09 06:16:47;;;;;;;;;;;;;;;-145.06;100.00;60892.56;4747374;29;20346;-93
2023/08/09 06:19:26;;;;;;;;;;;;;;;-145.06;100.00;60892.56;4756318;29;20013;-92
2023/08/09 06:22:05;;;;;;;;;;;;;;;-145.06;100.00;60892.56;4756324;29;20018;-94
2023/08/09 06:24:45;;;;;;;;;;;;;;;-145.06;100.00;60892.56;4756506;29;19938;-92
2023/08/09 06:27:23;;;;;;;;;;;;;;;-145.06;100.00;60892.56;4757876;29;19914;-92
2023/08/09 06:30:03;;;;;;;;;;;;;;;-145.06;100.00;60892.56;4756553;29;19915;-92
2023/08/09 06:32:42;;;;;;;;;;;;;;;-145.06;100.00;60892.56;4756631;29;20358;-92
2023/08/09 06:35:21;;;;;;;;;;;;;;;-145.06;100.00;60892.56;4756807;29;20006;-93
2023/08/09 06:38:00;;;;;;;;;;;;;;;-145.06;100.00;60892.56;4756934;29;19914;-92
2023/08/09 06:40:39;;;;;;;;;;;;;;;-145.06;100.00;60892.56;4756675;29;19923;-94
2023/08/09 06:43:18;;;;;;;;;;;;;;;-145.06;100.00;60892.56;4756401;29;19954;-93
2023/08/09 06:45:58;;;;;;;;;;;;;;;-145.06;100.00;60892.56;4755365;29;19914;-93
2023/08/09 06:48:36;;;;;;;;;;;;;;;-145.06;100.00;60892.56;4754477;29;19982;-93
2023/08/09 06:51:18;;;;;;;;;;;;;;;-145.06;100.00;60892.56;4755619;29;19918;-93
2023/08/09 06:53:57;;;;;;;;;;;;;;;-145.06;100.00;60892.56;4755945;29;20254;-93
2023/08/09 06:56:36;;;;;;;;;;;;;;;-145.06;100.00;60892.56;4755532;29;20358;-93
2023/08/09 06:59:17;;;;;;;;;;;;;;;-145.06;100.00;60892.56;4755757;29;19918;-94
2023/08/09 07:02:02;;;;;;;;;;;;;;;-145.06;100.00;60892.56;4756438;29;19983;-95
2023/08/09 07:04:41;;;;;;;;;;;;;;;-145.06;100.00;60892.56;4756031;29;19915;-93
2023/08/09 07:07:29;;;;;;;;;;;;;;;-145.06;100.00;60892.56;4756019;29;19914;-93
2023/08/09 07:10:08;;;;;;;;;;;;;;;-145.06;100.00;60892.56;4750970;29;19966;-93
2023/08/09 07:12:55;;;;;;;;;;;;;;;-145.06;100.00;60892.56;4744725;29;19915;-92
2023/08/09 07:15:37;;;;;;;;;;;;;;;-145.06;100.00;60892.56;4738095;29;19915;-94
2023/08/09 07:18:16;;;;;;;;;;;;;;;-145.06;100.00;60892.56;4737861;29;19916;-94
2023/08/09 07:20:57;;;;;;;;;;;;;;;-145.06;100.00;60892.56;4768580;29;19923;-92
2023/08/09 07:23:36;;;;;;;;;;;;;;;-145.06;100.00;60892.56;4755850;29;19915;-93
2023/08/09 07:26:15;;;;;;;;;;;;;;;-145.06;100.00;60892.56;4755219;29;19919;-94
2023/08/09 07:28:54;;;;;;;;;;;;;;;-145.06;100.00;60892.56;4759236;29;19946;-93
2023/08/09 07:31:34;;;;;;;;;;;;;;;-145.06;100.00;60892.56;4749067;29;19915;-92
2023/08/09 07:34:14;;;;;;;;;;;;;;;-145.06;100.00;60892.56;4737477;29;20254;-94
2023/08/09 07:36:53;;;;;;;;;;;;;;;-145.06;100.00;60892.56;4737481;29;19915;-93
2023/08/09 07:39:34;;;;;;;;;;;;;;;-145.06;100.00;60892.56;4737287;29;19919;-93
2023/08/09 07:42:13;;;;;;;;;;;;;;;16.90;100.00;60892.56;4738062;29;19915;-93
2023/08/09 07:44:53;;;;;;;;;;;;;;;16.95;100.00;60892.56;4754295;29;19915;-93
2023/08/09 07:47:32;;;;;;;;;;;;;;;16.97;100.00;60892.56;4759132;29;19914;-91
2023/08/09 07:50:11;;;;;;;;;;;;;;;17.00;100.00;60892.56;4751063;29;20366;-92
2023/08/09 07:52:50;;;;;;;;;;;;;;;17.05;100.00;60892.56;4740271;29;19915;-92
2023/08/09 07:55:31;;;;;;;;;;;;;;;17.11;100.00;60892.56;4747323;29;20009;-92
2023/08/09 07:58:10;;;;;;;;;;;;;;;17.15;100.00;60892.56;4753250;29;19994;-93
2023/08/09 08:00:52;;;;;;;;;;;;;;;-145.06;100.00;60892.56;4752886;29;19919;-93
2023/08/09 08:03:31;;;;;;;;;;;;;;;-145.06;100.00;60892.56;4753577;29;19927;-92
2023/08/09 08:06:10;;;;;;;;;;;;;;;-145.06;100.00;60892.56;4770448;29;19927;-91
2023/08/09 08:08:50;;;;;;;;;;;;;;;-145.06;100.00;60892.56;4744337;29;19955;-93
2023/08/09 08:11:28;;;;;;;;;;;;;;;-145.06;100.00;60892.56;4740884;29;19915;-93
2023/08/09 08:14:08;;;;;;;;;;;;;;;-145.06;100.00;60892.56;4721746;29;19919;-94
2023/08/09 08:16:48;;;;;;;;;;;;;;;-145.06;100.00;60892.56;4722637;29;19916;-95
2023/08/09 08:19:27;;;;;;;;;;;;;;;-145.06;100.00;60892.56;4727405;29;19918;-93
2023/08/09 08:22:07;;;;;;;;;;;;;;;-145.06;100.00;60892.56;4757379;29;19911;-93
2023/08/09 08:24:45;;;;;;;;;;;;;;;-145.06;100.00;60892.56;4757821;29;19918;-93
2023/08/09 08:27:25;;;;;;;;;;;;;;;-145.06;100.00;60892.56;4747932;29;20005;-93
2023/08/09 08:30:04;;;;;;;;;;;;;;;-145.06;100.00;60892.56;4741427;29;19919;-93
2023/08/09 08:32:49;;;;;;;;;;;;;;;-145.06;100.00;60892.56;4751453;29;20002;-93
2023/08/09 08:35:34;;;;;;;;;;;;;;;-145.06;100.00;60892.56;4752257;29;19915;-94
2023/08/09 08:38:13;;;;;;;;;;;;;;;-145.06;100.00;60892.56;4755071;29;19914;-95
2023/08/09 08:40:54;;;;;;;;;;;;;;;-145.06;100.00;60892.56;4757152;29;19919;-92
2023/08/09 08:43:33;;;;;;;;;;;;;;;-145.06;100.00;60892.56;4757611;29;19915;-93
2023/08/09 08:46:14;;;;;;;;;;;;;;;-145.06;100.00;60892.56;4757577;29;20420;-90
2023/08/09 08:48:57;;;;;;;;;;;;;;;-145.06;100.00;60892.56;4721286;29;19915;-94
2023/08/09 08:51:36;;;;;;;;;;;;;;;-145.06;100.00;60892.56;4723498;29;19920;-92
2023/08/09 08:54:17;;;;;;;;;;;;;;;-145.06;100.00;60892.56;4721769;29;19954;-92
2023/08/09 08:56:57;;;;;;;;;;;;;;;-145.06;100.00;60892.56;4721564;29;20486;-92
2023/08/09 08:59:36;;;;;;;;;;;;;;;-145.06;100.00;60892.56;4746247;29;19962;-92
2023/08/09 09:02:15;;;;;;;;;;;;;;;-145.06;100.00;60892.56;4754154;29;19915;-94
2023/08/09 09:04:54;;;;;;;;;;;;;;;-145.06;100.00;60892.56;4754149;29;19915;-93
2023/08/09 09:07:33;;;;;;;;;;;;;;;-145.06;100.00;60892.56;4741221;29;19915;-94
2023/08/09 09:10:13;;;;;;;;;;;;;;;-145.06;100.00;60892.56;4722484;29;20279;-94
2023/08/09 09:13:01;;;;;;;;;;;;;;;-145.06;100.00;60892.56;4722492;29;20506;-93
2023/08/09 09:15:41;;;;;;;;;;;;;;;-145.06;100.00;60892.56;4727251;29;19915;-94
2023/08/09 09:18:21;;;;;;;;;;;;;;;-145.06;100.00;60892.56;4758170;29;19915;-95
2023/08/09 09:21:03;;;;;;;;;;;;;;;-145.06;100.00;60892.56;4757870;29;19919;-95
2023/08/09 09:23:42;;;;;;;;;;;;;;;-145.06;100.00;60892.56;4755910;29;20001;-93
2023/08/09 09:26:23;;;;;;;;;;;;;;;-145.06;100.00;60892.56;4756312;29;19923;-94
2023/08/09 09:29:06;;;;;;;;;;;;;;;-145.06;100.00;60892.56;4756017;29;19915;-94
2023/08/09 09:32:00;;;;;;;;;;;;;;;-145.06;100.00;60892.56;4748054;29;19979;-93
2023/08/09 09:34:39;;;;;;;;;;;;;;;-145.06;100.00;60892.56;4740663;29;19954;-93
2023/08/09 09:37:22;;;;;;;;;;;;;;;-145.06;100.00;60892.56;4740051;29;19958;-95
2023/08/09 09:40:01;;;;;;;;;;;;;;;18.72;100.00;60892.56;4739205;29;19919;-93
2023/08/09 09:42:40;;;;;;;;;;;;;;;-145.06;100.00;60892.56;4739274;29;19919;-94
2023/08/09 09:45:23;;;;;;;;;;;;;;;-145.06;100.00;60892.56;4739254;29;19915;-93
2023/08/09 09:48:02;;;;;;;;;;;;;;;-145.06;100.00;60892.56;4737439;29;19958;-92
2023/08/09 09:50:41;;;;;;;;;;;;;;;-145.06;100.00;60892.56;4738582;29;19915;-94
2023/08/09 09:53:20;;;;;;;;;;;;;;;-145.06;100.00;60892.56;4740391;29;20354;-94
2023/08/09 09:56:00;;;;;;;;;;;;;;;-145.06;100.00;60892.56;4740353;29;19919;-94
2023/08/09 09:58:41;;;;;;;;;;;;;;;-145.06;100.00;60892.56;4740532;29;19946;-92
2023/08/09 10:01:24;;;;;;;;;;;;;;;-145.06;100.00;60892.56;4740400;29;19915;-92
2023/08/09 10:04:08;;;;;;;;;;;;;;;-145.06;100.00;60892.56;4741026;29;19915;-94
2023/08/09 10:06:53;;;;;;;;;;;;;;;-145.06;100.00;60892.56;4761459;29;20361;-95
2023/08/09 10:09:32;;;;;;;;;;;;;;;-145.06;100.00;60892.56;4741219;29;19919;-93
2023/08/09 10:12:13;;;;;;;;;;;;;;;-145.06;100.00;60892.56;4741039;29;19947;-93
2023/08/09 10:14:54;;;;;;;;;;;;;;;-145.06;100.00;60892.56;4739857;29;19915;-94
2023/08/09 10:17:33;;;;;;;;;;;;;;;-145.06;100.00;60892.56;4740887;29;19915;-93
2023/08/09 10:20:21;;;;;;;;;;;;;;;-145.06;100.00;60892.56;4739748;29;19920;-95
2023/08/09 10:23:00;;;;;;;;;;;;;;;-145.06;100.00;60892.56;4740112;29;19915;-94
2023/08/09 10:25:43;;;;;;;;;;;;;;;-145.06;100.00;60892.56;4754504;29;19915;-94
2023/08/09 10:28:42;;;;;;;;;;;;;;;-145.06;100.00;60892.56;4740736;29;19915;-95
2023/08/09 10:31:41;;;;;;;;;;;;;;;-145.06;100.00;60892.56;4751872;29;19915;-95
2023/08/09 10:34:22;;;;;;;;;;;;;;;-145.06;100.00;60892.56;4758253;29;19918;-93
2023/08/09 10:37:01;;;;;;;;;;;;;;;-145.06;100.00;60892.56;4758066;29;19915;-95
2023/08/09 10:39:42;;;;;;;;;;;;;;;-145.06;100.00;60892.56;4758069;29;19974;-95
2023/08/09 10:42:21;;;;;;;;;;;;;;;-145.06;100.00;60892.56;4751797;29;19915;-94
2023/08/09 10:45:03;;;;;;;;;;;;;;;-145.06;100.00;60892.56;4758607;29;19915;-94
2023/08/09 10:47:42;;;;;;;;;;;;;;;-145.06;100.00;60892.56;4759328;29;19915;-92
2023/08/09 10:50:22;;;;;;;;;;;;;;;-145.06;100.00;60892.56;4757267;29;19994;-92
2023/08/09 10:53:01;;;;;;;;;;;;;;;-145.06;100.00;60892.56;4757301;29;19914;-92
2023/08/09 10:55:40;;;;;;;;;;;;;;;-145.06;100.00;60892.56;4743976;29;19915;-94
2023/08/09 10:58:18;;;;;;;;;;;;;;;-145.06;100.00;60892.56;4739014;29;19915;-92
2023/08/09 11:00:57;;;;;;;;;;;;;;;20.75;100.00;60892.56;4739169;29;19919;-93
2023/08/09 11:03:36;;;;;;;;;;;;;;;20.79;100.00;60892.56;4756118;29;19915;-92
2023/08/09 11:06:15;;;;;;;;;;;;;;;20.84;100.00;60892.56;4757330;29;19922;-92
2023/08/09 11:08:54;;;;;;;;;;;;;;;20.91;100.00;60892.56;4756876;29;19915;-93
2023/08/09 11:11:34;;;;;;;;;;;;;;;20.96;100.00;60892.56;4734771;29;19916;-93
2023/08/09 11:14:14;;;;;;;;;;;;;;;21.01;100.00;60892.56;4721426;29;19915;-95
2023/08/09 11:16:53;;;;;;;;;;;;;;;-145.06;100.00;60892.56;4745413;29;19954;-94
2023/08/09 11:19:32;;;;;;;;;;;;;;;-145.06;100.00;60892.56;4755765;29;19918;-92
2023/08/09 11:22:11;;;;;;;;;;;;;;;-145.06;100.00;60892.56;4757451;29;19914;-94
2023/08/09 11:24:50;;;;;;;;;;;;;;;-145.06;100.00;60892.56;4757250;29;19915;-93
2023/08/09 11:27:29;;;;;;;;;;;;;;;-145.06;100.00;60892.56;4757478;29;19915;-93
2023/08/09 11:30:08;;;;;;;;;;;;;;;-145.06;100.00;60892.56;4757354;29;20091;-94
2023/08/09 11:32:56;;;;;;;;;;;;;;;-145.06;100.00;60892.56;4741116;29;19919;-94
2023/08/09 11:35:42;;;;;;;;;;;;;;;-145.06;100.00;60892.56;4739473;29;19915;-93
2023/08/09 11:38:21;;;;;;;;;;;;;;;-145.06;100.00;60892.56;4739826;29;19919;-95
2023/08/09 11:41:00;;;;;;;;;;;;;;;-145.06;100.00;60892.56;4739949;29;19947;-94
2023/08/09 11:43:41;;;;;;;;;;;;;;;-145.06;100.00;60892.56;4740006;29;20263;-93
2023/08/09 11:46:23;;;;;;;;;;;;;;;-145.06;100.00;60892.56;4738999;29;19915;-93
2023/08/09 11:49:03;;;;;;;;;;;;;;;-145.06;100.00;60892.56;4741542;29;19916;-95
2023/08/09 11:51:42;;;;;;;;;;;;;;;21.81;100.00;60892.56;4739279;29;20350;-93
2023/08/09 11:54:25;;;;;;;;;;;;;;;21.85;100.00;60892.56;4740073;29;19915;-93
2023/08/09 11:57:10;;;;;;;;;;;;;;;21.93;100.00;60892.56;4730683;29;19916;-94
2023/08/09 11:59:49;;;;;;;;;;;;;;;-145.06;100.00;60892.56;4732196;29;19919;-95
2023/08/09 12:02:28;;;;;;;;;;;;;;;-145.06;100.00;60892.56;4752043;29;20154;-94
2023/08/09 12:05:09;;;;;;;;;;;;;;;22.23;100.00;60892.56;4755179;29;19914;-95
2023/08/09 12:07:52;;;;;;;;;;;;;;;22.31;100.00;60892.56;4755674;29;19915;-95
2023/08/09 12:10:31;;;;;;;;;;;;;;;-145.06;100.00;60892.56;4754648;29;19915;-93
2023/08/09 12:13:10;;;;;;;;;;;;;;;-145.06;100.00;60892.56;4735718;29;19915;-92
2023/08/09 12:15:49;;;;;;;;;;;;;;;-145.06;100.00;60892.56;4735719;29;19915;-93
2023/08/09 12:18:28;;;;;;;;;;;;;;;-145.06;100.00;60892.56;4738088;29;19959;-93
2023/08/09 12:21:10;;;;;;;;;;;;;;;-145.06;100.00;60892.56;4738160;29;19919;-94
2023/08/09 12:23:49;;;;;;;;;;;;;;;-145.06;100.00;60892.56;4741178;29;20354;-93
2023/08/09 12:26:29;;;;;;;;;;;;;;;-145.06;100.00;60892.56;4741412;29;19916;-93
2023/08/09 12:29:14;;;;;;;;;;;;;;;-145.06;100.00;60892.56;4721864;29;19920;-93
2023/08/09 12:31:54;;;;;;;;;;;;;;;-145.06;100.00;60892.56;4751570;29;19914;-91
2023/08/09 12:34:33;;;;;;;;;;;;;;;-145.06;100.00;60892.56;4757644;29;20030;-93
2023/08/09 12:37:12;;;;;;;;;;;;;;;-145.06;100.00;60892.56;4758548;29;19915;-91
2023/08/09 12:39:54;;;;;;;;;;;;;;;-145.06;100.00;60892.56;4757885;29;19919;-92
2023/08/09 12:42:33;;;;;;;;;;;;;;;-145.06;100.00;60892.56;4721738;29;19915;-94
2023/08/09 12:45:13;;;;;;;;;;;;;;;-145.06;100.00;60892.56;4741763;29;19920;-95
2023/08/09 12:47:51;;;;;;;;;;;;;;;-145.06;100.00;60892.56;4739424;29;19915;-92
2023/08/09 12:50:30;;;;;;;;;;;;;;;-145.06;100.00;60892.56;4746321;29;19915;-93
2023/08/09 12:53:10;;;;;;;;;;;;;;;-145.06;100.00;60892.56;4757135;29;20090;-91
2023/08/09 12:55:49;;;;;;;;;;;;;;;-145.06;100.00;60892.56;4757227;29;19914;-93
2023/08/09 12:58:28;;;;;;;;;;;;;;;-145.06;100.00;60892.56;4757316;29;19919;-92
2023/08/09 13:01:07;;;;;;;;;;;;;;;-145.06;100.00;60892.56;4757591;29;19923;-93
2023/08/09 13:03:47;;;;;;;;;;;;;;;-145.06;100.00;60892.56;4721579;29;19924;-92
2023/08/09 13:06:26;;;;;;;;;;;;;;;-145.06;100.00;60892.56;4721003;29;19915;-92
2023/08/09 13:09:09;;;;;;;;;;;;;;;-145.06;100.00;60892.56;4733638;29;19915;-92
2023/08/09 13:11:48;;;;;;;;;;;;;;;-145.06;100.00;60892.56;4757583;29;19915;-93
2023/08/09 13:14:27;;;;;;;;;;;;;;;-145.06;100.00;60892.56;4758105;29;19993;-92
2023/08/09 13:17:06;;;;;;;;;;;;;;;-145.06;100.00;60892.56;4758000;29;19919;-93
2023/08/09 13:19:48;;;;;;;;;;;;;;;-145.06;100.00;60892.56;4763372;29;19919;-93
2023/08/09 13:22:30;;;;;;;;;;;;;;;-145.06;100.00;60892.56;4745293;29;19915;-93
2023/08/09 13:25:10;;;;;;;;;;;;;;;-145.06;100.00;60892.56;4739585;29;19916;-94
2023/08/09 13:27:49;;;;;;;;;;;;;;;-145.06;100.00;60892.56;4738448;29;20362;-92
2023/08/09 13:30:31;;;;;;;;;;;;;;;-145.06;100.00;60892.56;4742766;29;19915;-93
2023/08/09 13:33:10;;;;;;;;;;;;;;;-145.06;100.00;60892.56;4754782;29;19919;-94
2023/08/09 13:35:49;;;;;;;;;;;;;;;-145.06;100.00;60892.56;4759537;29;20357;-94